createdAt,value
2022-11-05T00:01:15.442Z,100679.11
2022-11-05T00:04:29.805Z,100673.98
2022-11-05T00:07:29.418Z,100673.33
2022-11-05T00:10:07.388Z,100674.02
2022-11-05T00:12:56.153Z,100673.98
2022-11-05T00:15:43.003Z,100678.48
2022-11-05T00:18:11.728Z,100680.89
2022-11-05T00:20:40.389Z,100681.88
2022-11-05T00:23:27.202Z,100679.77
2022-11-05T00:26:02.894Z,100682.27
2022-11-05T00:28:33.072Z,100686.05
2022-11-05T00:31:21.913Z,100683.16
2022-11-05T00:33:50.486Z,100680.23
2022-11-05T00:36:19.715Z,100679.77
2022-11-05T00:38:48.350Z,100684.40
2022-11-05T00:41:16.921Z,100685.20
2022-11-05T00:44:03.956Z,100682.55
2022-11-05T00:46:32.494Z,100678.60
2022-11-05T00:49:19.554Z,100674.09
2022-11-05T00:51:48.147Z,100675.28
2022-11-05T00:54:16.885Z,100678.67
2022-11-05T00:56:45.432Z,100676.33
2022-11-05T00:59:14.060Z,100671.16
2022-11-05T01:01:42.693Z,100668.21
2022-11-05T01:04:11.324Z,100666.54
2022-11-05T01:06:39.883Z,100669.94
2022-11-05T01:09:08.497Z,100668.20
2022-11-05T01:11:37.463Z,100661.78
2022-11-05T01:14:18.414Z,100662.56
2022-11-05T01:16:47.028Z,100666.83
2022-11-05T01:19:15.722Z,100672.98
2022-11-05T01:21:44.363Z,100664.61
2022-11-05T01:24:13.008Z,100666.80
2022-11-05T01:26:41.568Z,100668.76
2022-11-05T01:29:11.373Z,100668.03
2022-11-05T01:31:39.953Z,100663.00
2022-11-05T01:34:08.551Z,100659.20
2022-11-05T01:36:37.178Z,100662.02
2022-11-05T01:39:06.116Z,100667.14
2022-11-05T01:41:34.750Z,100669.02
2022-11-05T01:44:03.608Z,100669.16
2022-11-05T01:46:38.856Z,100673.02
2022-11-05T01:49:28.480Z,100670.88
2022-11-05T01:52:00.096Z,100666.65
2022-11-05T01:54:32.630Z,100667.49
2022-11-05T01:57:08.211Z,100669.94
2022-11-05T01:59:46.238Z,100672.11
2022-11-05T02:02:15.003Z,100668.40
2022-11-05T02:04:58.925Z,100668.94
2022-11-05T02:07:29.148Z,100671.48
2022-11-05T02:10:10.215Z,100673.39
2022-11-05T02:12:42.327Z,100677.42
2022-11-05T02:15:14.105Z,100680.74
2022-11-05T02:18:06.422Z,100677.52
2022-11-05T02:20:52.329Z,100681.48
2022-11-05T02:23:51.698Z,100682.36
2022-11-05T02:26:57.118Z,100683.57
2022-11-05T02:29:56.608Z,100681.52
2022-11-05T02:32:56.747Z,100686.59
2022-11-05T02:35:37.223Z,100682.20
2022-11-05T02:38:43.349Z,100686.50
2022-11-05T02:41:48.061Z,100690.45
2022-11-05T02:44:41.650Z,100689.77
2022-11-05T02:47:50.451Z,100689.79
2022-11-05T02:50:23.319Z,100687.41
2022-11-05T02:52:58.601Z,100692.23
2022-11-05T02:55:35.057Z,100692.22
2022-11-05T02:58:06.064Z,100693.69
2022-11-05T03:01:00.635Z,100689.87
2022-11-05T03:03:40.621Z,100690.43
2022-11-05T03:06:36.238Z,100693.07
2022-11-05T03:09:25.800Z,100692.95
2022-11-05T03:12:10.646Z,100695.86
2022-11-05T03:15:22.008Z,100690.65
2022-11-05T03:18:11.806Z,100689.92
2022-11-05T03:20:46.794Z,100687.14
2022-11-05T03:23:42.852Z,100685.69
2022-11-05T03:26:35.934Z,100684.67
2022-11-05T03:29:19.601Z,100692.24
2022-11-05T03:31:50.686Z,100694.25
2022-11-05T03:34:25.114Z,100696.30
2022-11-05T03:36:57.331Z,100693.69
2022-11-05T03:39:35.694Z,100689.48
2022-11-05T03:42:08.785Z,100699.42
2022-11-05T03:44:39.255Z,100696.67
2022-11-05T03:47:15.642Z,100692.96
2022-11-05T03:50:04.990Z,100689.00
2022-11-05T03:52:44.270Z,100688.14
2022-11-05T03:55:13.109Z,100691.64
2022-11-05T03:57:47.393Z,100696.48
2022-11-05T04:00:17.117Z,100699.77
2022-11-05T04:02:45.861Z,100702.75
2022-11-05T04:05:14.613Z,100702.55
2022-11-05T04:08:03.633Z,100706.85
2022-11-05T04:10:50.363Z,100709.54
2022-11-05T04:13:24.882Z,100712.18
2022-11-05T04:16:14.406Z,100713.05
2022-11-05T04:18:43.768Z,100715.17
2022-11-05T04:21:31.061Z,100717.07
2022-11-05T04:24:11.355Z,100717.75
2022-11-05T04:26:43.991Z,100715.74
2022-11-05T04:29:30.855Z,100716.11
2022-11-05T04:31:59.428Z,100717.02
2022-11-05T04:34:28.041Z,100717.52
2022-11-05T04:36:56.607Z,100714.94
2022-11-05T04:39:25.201Z,100716.60
2022-11-05T04:41:53.751Z,100712.92
2022-11-05T04:44:22.361Z,100704.76
2022-11-05T04:46:51.025Z,100706.49
2022-11-05T04:49:19.553Z,100707.45
2022-11-05T04:51:48.186Z,100709.80
2022-11-05T04:54:16.801Z,100711.76
2022-11-05T04:56:45.382Z,100713.41
2022-11-05T04:59:14.009Z,100718.83
2022-11-05T05:01:42.680Z,100719.99
2022-11-05T05:04:11.449Z,100719.55
2022-11-05T05:06:39.974Z,100722.41
2022-11-05T05:09:08.588Z,100724.21
2022-11-05T05:11:37.319Z,100722.05
2022-11-05T05:14:05.992Z,100723.54
2022-11-05T05:16:34.605Z,100723.80
2022-11-05T05:19:03.284Z,100722.21
2022-11-05T05:21:41.151Z,100725.23
2022-11-05T05:24:19.750Z,100727.95
2022-11-05T05:26:50.312Z,100730.39
2022-11-05T05:29:19.128Z,100734.39
2022-11-05T05:31:47.718Z,100737.64
2022-11-05T05:34:16.252Z,100740.42
2022-11-05T05:36:44.906Z,100745.25
2022-11-05T05:39:15.974Z,100749.69
2022-11-05T05:41:44.532Z,100755.30
2022-11-05T05:44:13.114Z,100762.26
2022-11-05T05:46:41.824Z,100761.52
2022-11-05T05:49:12.596Z,100760.36
2022-11-05T05:51:41.471Z,100762.61
2022-11-05T05:54:11.823Z,100761.20
2022-11-05T05:56:40.441Z,100760.33
2022-11-05T05:59:09.111Z,100766.83
2022-11-05T06:01:38.283Z,100777.62
2022-11-05T06:04:07.074Z,100784.43
2022-11-05T06:06:35.608Z,100789.35
2022-11-05T06:09:04.382Z,100797.16
2022-11-05T06:11:33.098Z,100798.17
2022-11-05T06:14:02.382Z,100803.63
2022-11-05T06:16:36.041Z,100810.98
2022-11-05T06:19:05.770Z,100813.98
2022-11-05T06:21:34.726Z,100818.81
2022-11-05T06:24:04.130Z,100822.84
2022-11-05T06:26:32.750Z,100820.05
2022-11-05T06:29:01.374Z,100814.09
2022-11-05T06:31:29.944Z,100812.93
2022-11-05T06:33:58.595Z,100816.36
2022-11-05T06:36:27.238Z,100816.90
2022-11-05T06:38:55.906Z,100820.32
2022-11-05T06:41:24.517Z,100813.08
2022-11-05T06:43:53.141Z,100820.91
2022-11-05T06:46:21.743Z,100826.80
2022-11-05T06:48:51.238Z,100835.84
2022-11-05T06:51:19.919Z,100837.73
2022-11-05T06:53:48.613Z,100839.52
2022-11-05T06:56:17.419Z,100840.61
2022-11-05T06:58:46.321Z,100846.30
2022-11-05T07:01:15.032Z,100846.77
2022-11-05T07:03:45.244Z,100850.70
2022-11-05T07:06:13.965Z,100848.15
2022-11-05T07:08:42.721Z,100845.66
2022-11-05T07:11:11.372Z,100847.22
2022-11-05T07:13:40.547Z,100845.68
2022-11-05T07:16:09.570Z,100842.92
2022-11-05T07:18:38.325Z,100842.89
2022-11-05T07:21:07.110Z,100845.41
2022-11-05T07:23:35.918Z,100852.21
2022-11-05T07:26:05.064Z,100848.01
2022-11-05T07:28:33.762Z,100850.98
2022-11-05T07:31:02.779Z,100850.50
2022-11-05T07:33:36.349Z,100855.51
2022-11-05T07:36:06.208Z,100853.06
2022-11-05T07:38:35.211Z,100848.79
2022-11-05T07:41:04.484Z,100847.80
2022-11-05T07:43:33.346Z,100848.92
2022-11-05T07:46:02.127Z,100849.17
2022-11-05T07:48:30.925Z,100847.14
2022-11-05T07:50:59.719Z,100846.48
2022-11-05T07:53:28.557Z,100849.91
2022-11-05T07:55:59.072Z,100854.14
2022-11-05T07:58:27.876Z,100851.21
2022-11-05T08:00:58.273Z,100852.35
2022-11-05T08:03:27.167Z,100849.63
2022-11-05T08:05:56.011Z,100845.48
2022-11-05T08:08:24.811Z,100835.95
2022-11-05T08:10:53.755Z,100838.88
2022-11-05T08:13:22.736Z,100836.19
2022-11-05T08:15:51.475Z,100837.85
2022-11-05T08:18:20.181Z,100836.32
2022-11-05T08:20:49.093Z,100840.09
2022-11-05T08:23:17.878Z,100839.59
2022-11-05T08:25:46.659Z,100839.00
2022-11-05T08:28:15.476Z,100837.73
2022-11-05T08:30:44.082Z,100842.52
2022-11-05T08:33:14.746Z,100846.60
2022-11-05T08:35:43.854Z,100843.39
2022-11-05T08:38:14.804Z,100841.80
2022-11-05T08:40:47.140Z,100846.27
2022-11-05T08:43:16.520Z,100847.16
2022-11-05T08:45:45.289Z,100844.83
2022-11-05T08:48:17.661Z,100844.45
2022-11-05T08:50:49.006Z,100841.13
2022-11-05T08:53:18.137Z,100841.06
2022-11-05T08:55:47.966Z,100834.34
2022-11-05T08:58:17.555Z,100839.42
2022-11-05T09:00:49.650Z,100835.45
2022-11-05T09:03:18.850Z,100839.13
2022-11-05T09:05:47.674Z,100841.08
2022-11-05T09:08:19.435Z,100843.19
2022-11-05T09:10:50.037Z,100841.65
2022-11-05T09:13:20.095Z,100844.87
2022-11-05T09:15:50.463Z,100851.16
2022-11-05T09:18:20.519Z,100860.86
2022-11-05T09:20:49.261Z,100866.39
2022-11-05T09:23:18.135Z,100867.53
2022-11-05T09:25:46.899Z,100864.30
2022-11-05T09:28:20.507Z,100863.02
2022-11-05T09:30:52.110Z,100861.30
2022-11-05T09:33:25.745Z,100852.86
2022-11-05T09:35:54.684Z,100862.34
2022-11-05T09:38:23.349Z,100863.14
2022-11-05T09:41:13.051Z,100866.50
2022-11-05T09:43:50.964Z,100861.42
2022-11-05T09:46:25.224Z,100857.81
2022-11-05T09:49:03.473Z,100860.36
2022-11-05T09:51:32.954Z,100863.48
2022-11-05T09:54:05.714Z,100862.26
2022-11-05T09:56:37.587Z,100861.06
2022-11-05T09:59:24.816Z,100862.68
2022-11-05T10:02:11.789Z,100868.03
2022-11-05T10:04:43.734Z,100863.88
2022-11-05T10:07:19.393Z,100871.30
2022-11-05T10:09:54.089Z,100871.65
2022-11-05T10:12:48.328Z,100869.69
2022-11-05T10:15:25.013Z,100871.83
2022-11-05T10:18:12.862Z,100872.36
2022-11-05T10:20:43.946Z,100876.05
2022-11-05T10:23:17.619Z,100881.77
2022-11-05T10:25:53.152Z,100883.80
2022-11-05T10:28:26.183Z,100886.44
2022-11-05T10:31:12.197Z,100882.61
2022-11-05T10:34:03.722Z,100883.02
2022-11-05T10:36:36.499Z,100887.73
2022-11-05T10:39:19.479Z,100886.45
2022-11-05T10:42:25.048Z,100886.61
2022-11-05T10:45:12.809Z,100887.05
2022-11-05T10:48:22.886Z,100886.45
2022-11-05T10:50:51.653Z,100886.94
2022-11-05T10:53:39.313Z,100888.73
2022-11-05T10:56:39.025Z,100884.41
2022-11-05T10:59:30.409Z,100888.25
2022-11-05T11:02:09.943Z,100888.63
2022-11-05T11:04:38.751Z,100888.72
2022-11-05T11:07:22.206Z,100886.42
2022-11-05T11:09:51.914Z,100885.02
2022-11-05T11:12:41.102Z,100882.77
2022-11-05T11:15:24.383Z,100886.00
2022-11-05T11:17:53.581Z,100885.79
2022-11-05T11:20:32.149Z,100888.17
2022-11-05T11:23:15.489Z,100890.02
2022-11-05T11:26:02.076Z,100893.88
2022-11-05T11:29:21.492Z,100888.96
2022-11-05T11:31:58.275Z,100892.71
2022-11-05T11:34:34.858Z,100897.33
2022-11-05T11:37:28.924Z,100896.98
2022-11-05T11:40:04.387Z,100896.95
2022-11-05T11:42:39.550Z,100895.23
2022-11-05T11:45:38.338Z,100896.05
2022-11-05T11:48:14.708Z,100897.54
2022-11-05T11:50:46.844Z,100898.27
2022-11-05T11:53:21.722Z,100901.38
2022-11-05T11:56:01.985Z,100902.29
2022-11-05T11:58:58.030Z,100900.70
2022-11-05T12:02:03.945Z,100900.37
2022-11-05T12:05:04.831Z,100899.81
2022-11-05T12:07:58.385Z,100900.07
2022-11-05T12:10:41.969Z,100900.13
2022-11-05T12:13:20.677Z,100903.27
2022-11-05T12:16:06.706Z,100904.19
2022-11-05T12:18:55.272Z,100911.57
2022-11-05T12:21:51.502Z,100908.52
2022-11-05T12:24:40.853Z,100911.10
2022-11-05T12:27:18.711Z,100907.06
2022-11-05T12:30:16.531Z,100914.56
2022-11-05T12:33:03.423Z,100912.81
2022-11-05T12:35:48.979Z,100911.91
2022-11-05T12:38:57.680Z,100917.13
2022-11-05T12:41:39.083Z,100920.41
2022-11-05T12:44:46.533Z,100922.14
2022-11-05T12:47:57.753Z,100919.85
2022-11-05T12:50:53.734Z,100921.71
2022-11-05T12:53:56.486Z,100923.44
2022-11-05T12:56:36.261Z,100924.22
2022-11-05T12:59:32.124Z,100925.58
2022-11-05T13:02:29.066Z,100925.49
2022-11-05T13:05:35.305Z,100930.38
2022-11-05T13:08:03.984Z,100931.65
2022-11-05T13:11:21.951Z,100930.58
2022-11-05T13:14:02.874Z,100929.23
2022-11-05T13:16:49.850Z,100938.28
2022-11-05T13:19:35.091Z,100938.41
2022-11-05T13:23:01.000Z,100938.20
2022-11-05T13:25:35.002Z,100944.61
2022-11-05T13:28:28.638Z,100948.04
2022-11-05T13:31:01.697Z,100941.24
2022-11-05T13:33:42.362Z,100938.70
2022-11-05T13:36:45.834Z,100941.16
2022-11-05T13:39:26.040Z,100944.42
2022-11-05T13:42:05.397Z,100944.95
2022-11-05T13:44:51.947Z,100946.96
2022-11-05T13:48:08.472Z,100952.25
2022-11-05T13:51:23.552Z,100952.02
2022-11-05T13:54:13.054Z,100962.14
2022-11-05T13:57:04.908Z,100962.02
2022-11-05T13:59:51.745Z,100965.14
2022-11-05T14:02:35.218Z,100967.04
2022-11-05T14:05:06.801Z,100966.82
2022-11-05T14:07:45.798Z,100971.21
2022-11-05T14:10:37.791Z,100977.84
2022-11-05T14:13:17.362Z,100979.45
2022-11-05T14:16:11.151Z,100981.42
2022-11-05T14:19:06.590Z,100983.44
2022-11-05T14:21:49.398Z,100984.90
2022-11-05T14:24:24.307Z,100991.36
2022-11-05T14:27:01.896Z,100988.05
2022-11-05T14:29:43.922Z,100989.61
2022-11-05T14:32:21.240Z,100995.98
2022-11-05T14:35:36.460Z,100997.39
2022-11-05T14:38:17.943Z,100999.41
2022-11-05T14:40:47.800Z,101000.84
2022-11-05T14:43:26.226Z,101001.55
2022-11-05T14:46:01.002Z,101000.35
2022-11-05T14:48:41.288Z,100999.45
2022-11-05T14:51:21.923Z,101003.77
2022-11-05T14:53:51.635Z,101004.98
2022-11-05T14:56:20.429Z,101011.41
2022-11-05T14:58:49.137Z,101006.33
2022-11-05T15:01:35.874Z,101007.54
2022-11-05T15:04:40.589Z,101011.39
2022-11-05T15:07:09.198Z,101014.01
2022-11-05T15:09:59.271Z,101018.38
2022-11-05T15:12:46.019Z,101020.00
2022-11-05T15:15:44.664Z,101019.02
2022-11-05T15:18:34.176Z,101020.15
2022-11-05T15:21:05.121Z,101026.31
2022-11-05T15:23:42.738Z,101030.22
2022-11-05T15:26:50.581Z,101031.04
2022-11-05T15:29:24.931Z,101035.19
2022-11-05T15:31:54.102Z,101033.89
2022-11-05T15:34:30.136Z,101039.46
2022-11-05T15:37:20.486Z,101039.15
2022-11-05T15:39:52.565Z,101041.19
2022-11-05T15:42:27.450Z,101046.66
2022-11-05T15:44:59.117Z,101045.55
2022-11-05T15:47:34.465Z,101052.17
2022-11-05T15:50:21.365Z,101056.11
2022-11-05T15:52:54.075Z,101054.52
2022-11-05T15:55:25.990Z,101063.06
2022-11-05T15:58:06.516Z,101066.03
2022-11-05T16:00:37.317Z,101067.39
2022-11-05T16:03:17.802Z,101069.13
2022-11-05T16:05:48.685Z,101069.70
2022-11-05T16:08:30.599Z,101075.53
2022-11-05T16:11:01.223Z,101077.27
2022-11-05T16:13:37.115Z,101082.40
2022-11-05T16:16:34.061Z,101087.83
2022-11-05T16:19:40.169Z,101089.48
2022-11-05T16:22:09.582Z,101092.98
2022-11-05T16:24:38.540Z,101096.35
2022-11-05T16:27:18.976Z,101099.61
2022-11-05T16:29:55.749Z,101102.16
2022-11-05T16:32:31.193Z,101107.82
2022-11-05T16:35:03.755Z,101110.34
2022-11-05T16:37:41.243Z,101110.98
2022-11-05T16:40:21.381Z,101114.06
2022-11-05T16:42:53.125Z,101120.63
2022-11-05T16:45:25.144Z,101124.34
2022-11-05T16:47:53.962Z,101129.14
2022-11-05T16:50:32.606Z,101132.82
2022-11-05T16:53:01.269Z,101132.90
2022-11-05T16:55:33.128Z,101141.73
2022-11-05T16:58:02.375Z,101144.39
2022-11-05T17:00:31.232Z,101145.35
2022-11-05T17:03:00.160Z,101152.37
2022-11-05T17:05:31.857Z,101152.97
2022-11-05T17:08:01.777Z,101156.08
2022-11-05T17:10:30.934Z,101160.02
2022-11-05T17:13:00.529Z,101162.05
2022-11-05T17:15:33.741Z,101161.06
2022-11-05T17:18:03.609Z,101164.85
2022-11-05T17:20:51.755Z,101162.41
2022-11-05T17:23:24.120Z,101167.40
2022-11-05T17:26:02.187Z,101171.60
2022-11-05T17:28:31.365Z,101175.16
2022-11-05T17:31:05.561Z,101177.19
2022-11-05T17:33:35.173Z,101180.02
2022-11-05T17:36:15.985Z,101179.23
2022-11-05T17:38:45.185Z,101182.39
2022-11-05T17:41:17.228Z,101190.45
2022-11-05T17:43:46.838Z,101193.69
2022-11-05T17:46:17.143Z,101193.09
2022-11-05T17:48:46.654Z,101199.77
2022-11-05T17:51:17.354Z,101194.30
2022-11-05T17:53:49.385Z,101191.46
2022-11-05T17:56:32.124Z,101190.64
2022-11-05T17:59:03.669Z,101192.73
2022-11-05T18:01:36.058Z,101195.55
2022-11-05T18:04:09.047Z,101200.73
2022-11-05T18:06:39.721Z,101201.17
2022-11-05T18:09:10.144Z,101199.88
2022-11-05T18:11:39.835Z,101203.88
2022-11-05T18:14:08.863Z,101210.38
2022-11-05T18:16:37.923Z,101207.37
2022-11-05T18:19:06.655Z,101211.40
2022-11-05T18:21:35.270Z,101210.84
2022-11-05T18:24:07.847Z,101215.50
2022-11-05T18:26:36.463Z,101222.80
2022-11-05T18:29:06.397Z,101226.57
2022-11-05T18:31:35.101Z,101235.45
2022-11-05T18:34:04.088Z,101238.42
2022-11-05T18:36:33.354Z,101238.33
2022-11-05T18:39:04.239Z,101240.00
2022-11-05T18:41:33.437Z,101246.11
2022-11-05T18:44:03.526Z,101246.58
2022-11-05T18:46:57.074Z,101251.56
2022-11-05T18:49:22.776Z,101253.23
2022-11-05T18:51:51.700Z,101257.18
2022-11-05T18:54:20.501Z,101260.22
2022-11-05T18:56:49.452Z,101261.52
2022-11-05T18:59:36.843Z,101267.13
2022-11-05T19:02:08.781Z,101268.00
2022-11-05T19:04:38.201Z,101269.30
2022-11-05T19:07:09.500Z,101276.88
2022-11-05T19:09:39.682Z,101275.81
2022-11-05T19:12:08.470Z,101279.35
2022-11-05T19:14:37.471Z,101284.84
2022-11-05T19:17:06.150Z,101284.36
2022-11-05T19:19:34.737Z,101287.90
2022-11-05T19:22:04.003Z,101291.77
2022-11-05T19:24:32.819Z,101295.66
2022-11-05T19:27:01.476Z,101293.75
2022-11-05T19:29:30.052Z,101298.52
2022-11-05T19:31:58.646Z,101300.81
2022-11-05T19:34:27.477Z,101305.13
2022-11-05T19:36:56.263Z,101310.77
2022-11-05T19:39:24.919Z,101315.52
2022-11-05T19:41:57.628Z,101318.42
2022-11-05T19:44:30.729Z,101324.10
2022-11-05T19:46:59.479Z,101326.63
2022-11-05T19:49:31.351Z,101330.14
2022-11-05T19:52:00.187Z,101332.13
2022-11-05T19:54:29.049Z,101335.95
2022-11-05T19:56:57.684Z,101336.69
2022-11-05T19:59:26.366Z,101341.35
2022-11-05T20:01:55.362Z,101343.32
2022-11-05T20:04:24.172Z,101340.20
2022-11-05T20:06:52.861Z,101342.47
2022-11-05T20:09:23.160Z,101340.60
2022-11-05T20:11:54.770Z,101340.66
2022-11-05T20:14:25.503Z,101341.73
2022-11-05T20:16:54.398Z,101343.04
2022-11-05T20:19:23.540Z,101343.41
2022-11-05T20:21:52.678Z,101347.09
2022-11-05T20:24:25.084Z,101350.48
2022-11-05T20:26:55.046Z,101346.74
2022-11-05T20:29:30.546Z,101348.88
2022-11-05T20:32:04.497Z,101350.81
2022-11-05T20:34:35.122Z,101352.29
2022-11-05T20:37:05.565Z,101359.98
2022-11-05T20:43:05.826Z,101360.31
2022-11-05T20:45:34.475Z,101361.99
2022-11-05T20:48:03.394Z,101364.91
2022-11-05T20:50:31.977Z,101366.65
2022-11-05T20:53:01.152Z,101366.44
2022-11-05T20:55:29.910Z,101369.06
2022-11-05T20:57:58.601Z,101364.63
2022-11-05T21:00:27.237Z,101370.80
2022-11-05T21:02:56.066Z,101370.99
2022-11-05T21:05:24.845Z,101374.36
2022-11-05T21:07:53.482Z,101373.95
2022-11-05T21:10:23.275Z,101373.33
2022-11-05T21:12:52.221Z,101375.95
2022-11-05T21:15:23.722Z,101374.41
2022-11-05T21:17:52.714Z,101373.36
2022-11-05T21:20:21.772Z,101373.34
2022-11-05T21:22:50.460Z,101376.50
2022-11-05T21:25:20.416Z,101382.45
2022-11-05T21:27:49.354Z,101385.48
2022-11-05T21:30:18.113Z,101387.45
2022-11-05T21:32:46.783Z,101388.52
2022-11-05T21:35:15.402Z,101387.80
2022-11-05T21:37:45.884Z,101386.39
2022-11-05T21:40:15.629Z,101384.07
2022-11-05T21:42:47.217Z,101384.08
2022-11-05T21:45:16.477Z,101383.54
2022-11-05T21:47:45.183Z,101389.33
2022-11-05T21:50:16.093Z,101383.29
2022-11-05T21:53:08.578Z,101383.77
2022-11-05T21:56:31.982Z,101382.31
2022-11-05T21:59:20.225Z,101386.17
2022-11-05T22:01:51.166Z,101389.30
2022-11-05T22:04:20.692Z,101389.50
2022-11-05T22:06:49.460Z,101390.58
2022-11-05T22:09:18.191Z,101388.23
2022-11-05T22:11:46.926Z,101388.81
2022-11-05T22:14:15.632Z,101391.95
2022-11-05T22:16:45.172Z,101396.02
2022-11-05T22:19:14.418Z,101397.16
2022-11-05T22:21:43.063Z,101404.17
2022-11-05T22:24:12.063Z,101405.89
2022-11-05T22:26:43.707Z,101402.73
2022-11-05T22:29:13.659Z,101400.64
2022-11-05T22:31:42.387Z,101400.61
2022-11-05T22:34:12.016Z,101401.39
2022-11-05T22:36:40.890Z,101398.33
2022-11-05T22:39:12.430Z,101404.44
2022-11-05T22:41:42.191Z,101401.52
2022-11-05T22:44:15.326Z,101403.87
2022-11-05T22:46:44.691Z,101402.51
2022-11-05T22:49:14.866Z,101406.22
2022-11-05T22:51:45.614Z,101406.69
2022-11-05T22:54:14.733Z,101410.98
2022-11-05T22:56:44.335Z,101409.67
2022-11-05T22:59:15.739Z,101408.79
2022-11-05T23:01:45.750Z,101408.23
2022-11-05T23:04:16.136Z,101407.57
2022-11-05T23:07:03.146Z,101407.65
2022-11-05T23:09:53.226Z,101410.81
2022-11-05T23:12:32.664Z,101412.66
2022-11-05T23:15:05.759Z,101412.63
2022-11-05T23:17:53.207Z,101414.20
2022-11-05T23:20:42.457Z,101409.28
2022-11-05T23:23:31.733Z,101417.48
2022-11-05T23:26:21.230Z,101420.94
2022-11-05T23:28:49.988Z,101418.09
2022-11-05T23:31:37.150Z,101417.96
2022-11-05T23:34:05.890Z,101418.39
2022-11-05T23:36:53.237Z,101418.64
2022-11-05T23:39:22.107Z,101421.08
2022-11-05T23:42:09.440Z,101421.14
2022-11-05T23:44:56.882Z,101418.25
2022-11-05T23:47:43.972Z,101417.58
2022-11-05T23:50:12.872Z,101423.48
2022-11-05T23:52:41.652Z,101424.61
2022-11-05T23:55:10.558Z,101421.98
2022-11-05T23:57:39.651Z,101420.21
